sensor_id;sensor_type;location;lat;lon;timestamp;P1;durP1;ratioP1;P2;durP2;ratioP2
3249;SDS011;1637;42.020;23.992;2024-02-15T00:01:03;31.07;;;12.83;;
3249;SDS011;1637;42.020;23.992;2024-02-15T00:03:30;33.20;;;10.57;;
3249;SDS011;1637;42.020;23.992;2024-02-15T00:05:57;18.43;;;8.73;;
3249;SDS011;1637;42.020;23.992;2024-02-15T00:08:24;13.83;;;7.23;;
3249;SDS011;1637;42.020;23.992;2024-02-15T00:10:53;16.40;;;7.00;;
3249;SDS011;1637;42.020;23.992;2024-02-15T00:13:20;22.20;;;10.00;;
3249;SDS011;1637;42.020;23.992;2024-02-15T00:15:48;19.97;;;10.03;;
3249;SDS011;1637;42.020;23.992;2024-02-15T00:18:15;31.57;;;12.90;;
3249;SDS011;1637;42.020;23.992;2024-02-15T00:20:42;22.63;;;10.53;;
3249;SDS011;1637;42.020;23.992;2024-02-15T00:23:09;26.80;;;12.07;;
3249;SDS011;1637;42.020;23.992;2024-02-15T00:25:36;50.77;;;20.07;;
3249;SDS011;1637;42.020;23.992;2024-02-15T00:28:04;41.23;;;16.03;;
3249;SDS011;1637;42.020;23.992;2024-02-15T00:30:32;49.30;;;19.80;;
3249;SDS011;1637;42.020;23.992;2024-02-15T00:32:59;47.50;;;19.40;;
3249;SDS011;1637;42.020;23.992;2024-02-15T00:35:26;28.00;;;14.43;;
3249;SDS011;1637;42.020;23.992;2024-02-15T00:37:52;63.40;;;25.37;;
3249;SDS011;1637;42.020;23.992;2024-02-15T00:40:19;66.23;;;22.50;;
3249;SDS011;1637;42.020;23.992;2024-02-15T00:42:46;37.13;;;13.90;;
3249;SDS011;1637;42.020;23.992;2024-02-15T00:45:14;39.23;;;15.67;;
3249;SDS011;1637;42.020;23.992;2024-02-15T00:47:41;54.17;;;18.50;;
3249;SDS011;1637;42.020;23.992;2024-02-15T00:50:08;61.73;;;20.50;;
3249;SDS011;1637;42.020;23.992;2024-02-15T00:52:35;52.77;;;20.07;;
3249;SDS011;1637;42.020;23.992;2024-02-15T00:55:02;37.10;;;15.57;;
3249;SDS011;1637;42.020;23.992;2024-02-15T00:57:29;16.23;;;8.50;;
3249;SDS011;1637;42.020;23.992;2024-02-15T00:59:56;28.40;;;13.30;;
3249;SDS011;1637;42.020;23.992;2024-02-15T01:02:25;34.53;;;15.53;;
3249;SDS011;1637;42.020;23.992;2024-02-15T01:04:52;27.13;;;11.33;;
3249;SDS011;1637;42.020;23.992;2024-02-15T01:07:22;25.50;;;9.67;;
3249;SDS011;1637;42.020;23.992;2024-02-15T01:09:52;22.07;;;7.80;;
3249;SDS011;1637;42.020;23.992;2024-02-15T01:12:19;20.13;;;9.43;;
3249;SDS011;1637;42.020;23.992;2024-02-15T01:14:46;19.73;;;8.03;;
3249;SDS011;1637;42.020;23.992;2024-02-15T01:17:13;17.60;;;7.83;;
3249;SDS011;1637;42.020;23.992;2024-02-15T01:19:42;44.20;;;17.57;;
3249;SDS011;1637;42.020;23.992;2024-02-15T01:22:08;44.50;;;14.97;;
3249;SDS011;1637;42.020;23.992;2024-02-15T01:24:35;23.97;;;9.40;;
3249;SDS011;1637;42.020;23.992;2024-02-15T01:27:02;18.70;;;10.07;;
3249;SDS011;1637;42.020;23.992;2024-02-15T01:29:29;21.87;;;9.40;;
3249;SDS011;1637;42.020;23.992;2024-02-15T01:31:55;12.67;;;6.90;;
3249;SDS011;1637;42.020;23.992;2024-02-15T01:34:22;9.77;;;5.47;;
3249;SDS011;1637;42.020;23.992;2024-02-15T01:36:50;19.23;;;9.80;;
3249;SDS011;1637;42.020;23.992;2024-02-15T01:39:16;20.37;;;9.03;;
3249;SDS011;1637;42.020;23.992;2024-02-15T01:41:46;24.80;;;8.87;;
3249;SDS011;1637;42.020;23.992;2024-02-15T01:44:16;18.77;;;7.93;;
3249;SDS011;1637;42.020;23.992;2024-02-15T01:46:43;28.50;;;10.00;;
3249;SDS011;1637;42.020;23.992;2024-02-15T01:49:11;37.20;;;15.80;;
3249;SDS011;1637;42.020;23.992;2024-02-15T01:51:38;16.73;;;7.57;;
3249;SDS011;1637;42.020;23.992;2024-02-15T01:54:09;13.13;;;5.90;;
3249;SDS011;1637;42.020;23.992;2024-02-15T01:56:38;4.93;;;3.73;;
3249;SDS011;1637;42.020;23.992;2024-02-15T01:59:05;6.13;;;3.73;;
3249;SDS011;1637;42.020;23.992;2024-02-15T02:01:32;11.23;;;4.10;;
3249;SDS011;1637;42.020;23.992;2024-02-15T02:04:00;16.27;;;8.10;;
3249;SDS011;1637;42.020;23.992;2024-02-15T02:06:27;25.27;;;7.57;;
3249;SDS011;1637;42.020;23.992;2024-02-15T02:08:54;25.40;;;8.73;;
3249;SDS011;1637;42.020;23.992;2024-02-15T02:11:23;20.90;;;8.00;;
3249;SDS011;1637;42.020;23.992;2024-02-15T02:13:50;14.13;;;4.77;;
3249;SDS011;1637;42.020;23.992;2024-02-15T02:16:24;11.80;;;5.07;;
3249;SDS011;1637;42.020;23.992;2024-02-15T02:18:52;14.17;;;7.40;;
3249;SDS011;1637;42.020;23.992;2024-02-15T02:21:19;18.07;;;8.57;;
3249;SDS011;1637;42.020;23.992;2024-02-15T02:23:46;12.40;;;6.10;;
3249;SDS011;1637;42.020;23.992;2024-02-15T02:26:20;12.93;;;5.23;;
3249;SDS011;1637;42.020;23.992;2024-02-15T02:28:47;9.17;;;5.50;;
3249;SDS011;1637;42.020;23.992;2024-02-15T02:31:14;18.23;;;8.03;;
3249;SDS011;1637;42.020;23.992;2024-02-15T02:33:41;22.20;;;9.53;;
3249;SDS011;1637;42.020;23.992;2024-02-15T02:36:10;13.63;;;6.90;;
3249;SDS011;1637;42.020;23.992;2024-02-15T02:38:37;9.27;;;4.93;;
3249;SDS011;1637;42.020;23.992;2024-02-15T02:41:05;19.27;;;5.17;;
3249;SDS011;1637;42.020;23.992;2024-02-15T02:43:33;5.00;;;2.97;;
3249;SDS011;1637;42.020;23.992;2024-02-15T02:46:00;5.17;;;3.37;;
3249;SDS011;1637;42.020;23.992;2024-02-15T02:48:26;5.27;;;3.80;;
3249;SDS011;1637;42.020;23.992;2024-02-15T02:50:53;4.50;;;3.20;;
3249;SDS011;1637;42.020;23.992;2024-02-15T02:53:20;5.00;;;3.43;;
3249;SDS011;1637;42.020;23.992;2024-02-15T02:55:47;9.13;;;3.57;;
3249;SDS011;1637;42.020;23.992;2024-02-15T02:58:14;9.87;;;4.27;;
3249;SDS011;1637;42.020;23.992;2024-02-15T03:00:43;7.40;;;3.70;;
3249;SDS011;1637;42.020;23.992;2024-02-15T03:03:11;6.63;;;3.93;;
3249;SDS011;1637;42.020;23.992;2024-02-15T03:05:38;7.00;;;4.53;;
3249;SDS011;1637;42.020;23.992;2024-02-15T03:08:05;8.20;;;4.30;;
3249;SDS011;1637;42.020;23.992;2024-02-15T03:10:33;6.33;;;3.80;;
3249;SDS011;1637;42.020;23.992;2024-02-15T03:13:00;6.47;;;3.37;;
3249;SDS011;1637;42.020;23.992;2024-02-15T03:15:27;10.73;;;5.43;;
3249;SDS011;1637;42.020;23.992;2024-02-15T03:17:55;13.97;;;7.37;;
3249;SDS011;1637;42.020;23.992;2024-02-15T03:20:22;10.47;;;5.83;;
3249;SDS011;1637;42.020;23.992;2024-02-15T03:22:50;10.87;;;5.57;;
3249;SDS011;1637;42.020;23.992;2024-02-15T03:25:18;7.33;;;4.17;;
3249;SDS011;1637;42.020;23.992;2024-02-15T03:27:48;10.80;;;5.60;;
3249;SDS011;1637;42.020;23.992;2024-02-15T03:30:17;15.17;;;6.57;;
3249;SDS011;1637;42.020;23.992;2024-02-15T03:32:44;28.90;;;13.30;;
3249;SDS011;1637;42.020;23.992;2024-02-15T03:35:12;9.10;;;5.00;;
3249;SDS011;1637;42.020;23.992;2024-02-15T03:37:39;7.50;;;4.20;;
3249;SDS011;1637;42.020;23.992;2024-02-15T03:40:07;12.83;;;5.70;;
3249;SDS011;1637;42.020;23.992;2024-02-15T03:42:34;13.93;;;4.20;;
3249;SDS011;1637;42.020;23.992;2024-02-15T03:45:02;11.83;;;5.90;;
3249;SDS011;1637;42.020;23.992;2024-02-15T03:47:31;13.90;;;7.30;;
3249;SDS011;1637;42.020;23.992;2024-02-15T03:49:58;7.47;;;3.60;;
3249;SDS011;1637;42.020;23.992;2024-02-15T03:52:26;5.97;;;3.53;;
3249;SDS011;1637;42.020;23.992;2024-02-15T03:54:55;6.33;;;4.13;;
3249;SDS011;1637;42.020;23.992;2024-02-15T03:57:22;7.90;;;5.07;;
3249;SDS011;1637;42.020;23.992;2024-02-15T03:59:49;5.07;;;3.40;;
3249;SDS011;1637;42.020;23.992;2024-02-15T04:02:17;8.60;;;4.60;;
3249;SDS011;1637;42.020;23.992;2024-02-15T04:04:44;9.37;;;4.63;;
3249;SDS011;1637;42.020;23.992;2024-02-15T04:07:12;5.33;;;3.00;;
3249;SDS011;1637;42.020;23.992;2024-02-15T04:09:41;5.53;;;3.70;;
3249;SDS011;1637;42.020;23.992;2024-02-15T04:12:08;4.83;;;2.97;;
3249;SDS011;1637;42.020;23.992;2024-02-15T04:14:34;5.77;;;3.50;;
3249;SDS011;1637;42.020;23.992;2024-02-15T04:17:03;9.53;;;4.70;;
3249;SDS011;1637;42.020;23.992;2024-02-15T04:19:30;10.97;;;5.60;;
3249;SDS011;1637;42.020;23.992;2024-02-15T04:21:57;10.30;;;4.87;;
3249;SDS011;1637;42.020;23.992;2024-02-15T04:24:25;6.00;;;3.90;;
3249;SDS011;1637;42.020;23.992;2024-02-15T04:26:53;8.60;;;5.07;;
3249;SDS011;1637;42.020;23.992;2024-02-15T04:29:20;10.50;;;7.87;;
3249;SDS011;1637;42.020;23.992;2024-02-15T04:31:47;15.10;;;10.83;;
3249;SDS011;1637;42.020;23.992;2024-02-15T04:34:14;21.57;;;10.13;;
3249;SDS011;1637;42.020;23.992;2024-02-15T04:36:43;30.33;;;12.03;;
3249;SDS011;1637;42.020;23.992;2024-02-15T04:39:10;15.73;;;7.80;;
3249;SDS011;1637;42.020;23.992;2024-02-15T04:41:48;21.30;;;8.77;;
3249;SDS011;1637;42.020;23.992;2024-02-15T04:44:17;25.43;;;12.10;;
3249;SDS011;1637;42.020;23.992;2024-02-15T04:46:45;16.87;;;9.47;;
3249;SDS011;1637;42.020;23.992;2024-02-15T04:49:12;26.73;;;16.47;;
3249;SDS011;1637;42.020;23.992;2024-02-15T04:51:39;74.40;;;32.27;;
3249;SDS011;1637;42.020;23.992;2024-02-15T04:54:06;45.90;;;19.57;;
3249;SDS011;1637;42.020;23.992;2024-02-15T04:56:33;69.10;;;28.83;;
3249;SDS011;1637;42.020;23.992;2024-02-15T04:59:01;57.57;;;23.93;;
3249;SDS011;1637;42.020;23.992;2024-02-15T05:01:29;128.67;;;45.70;;
3249;SDS011;1637;42.020;23.992;2024-02-15T05:03:58;67.80;;;27.33;;
3249;SDS011;1637;42.020;23.992;2024-02-15T05:06:25;85.17;;;33.03;;
3249;SDS011;1637;42.020;23.992;2024-02-15T05:08:54;79.57;;;28.50;;
3249;SDS011;1637;42.020;23.992;2024-02-15T05:11:22;52.90;;;18.00;;
3249;SDS011;1637;42.020;23.992;2024-02-15T05:13:49;19.93;;;9.00;;
3249;SDS011;1637;42.020;23.992;2024-02-15T05:16:16;22.23;;;9.20;;
3249;SDS011;1637;42.020;23.992;2024-02-15T05:18:44;12.70;;;6.87;;
3249;SDS011;1637;42.020;23.992;2024-02-15T05:21:11;14.63;;;5.87;;
3249;SDS011;1637;42.020;23.992;2024-02-15T05:23:38;10.13;;;5.37;;
3249;SDS011;1637;42.020;23.992;2024-02-15T05:26:07;24.70;;;8.70;;
3249;SDS011;1637;42.020;23.992;2024-02-15T05:28:34;58.30;;;19.97;;
3249;SDS011;1637;42.020;23.992;2024-02-15T05:31:08;25.90;;;13.53;;
3249;SDS011;1637;42.020;23.992;2024-02-15T05:33:36;41.40;;;21.50;;
3249;SDS011;1637;42.020;23.992;2024-02-15T05:36:09;55.77;;;19.50;;
3249;SDS011;1637;42.020;23.992;2024-02-15T05:38:36;26.83;;;11.57;;
3249;SDS011;1637;42.020;23.992;2024-02-15T05:41:03;25.90;;;12.43;;
3249;SDS011;1637;42.020;23.992;2024-02-15T05:43:31;39.63;;;19.20;;
3249;SDS011;1637;42.020;23.992;2024-02-15T05:45:58;54.43;;;18.03;;
3249;SDS011;1637;42.020;23.992;2024-02-15T05:48:26;31.53;;;16.07;;
3249;SDS011;1637;42.020;23.992;2024-02-15T05:50:53;30.47;;;17.40;;
3249;SDS011;1637;42.020;23.992;2024-02-15T05:53:21;68.13;;;26.50;;
3249;SDS011;1637;42.020;23.992;2024-02-15T05:55:48;109.23;;;33.70;;
3249;SDS011;1637;42.020;23.992;2024-02-15T05:58:15;40.93;;;17.53;;
3249;SDS011;1637;42.020;23.992;2024-02-15T06:00:42;69.20;;;24.27;;
3249;SDS011;1637;42.020;23.992;2024-02-15T06:03:09;46.87;;;20.00;;
3249;SDS011;1637;42.020;23.992;2024-02-15T06:05:37;36.80;;;17.30;;
3249;SDS011;1637;42.020;23.992;2024-02-15T06:08:04;109.07;;;36.77;;
3249;SDS011;1637;42.020;23.992;2024-02-15T06:10:33;70.80;;;27.90;;
3249;SDS011;1637;42.020;23.992;2024-02-15T06:13:00;43.67;;;19.17;;
3249;SDS011;1637;42.020;23.992;2024-02-15T06:15:26;41.07;;;19.93;;
3249;SDS011;1637;42.020;23.992;2024-02-15T06:17:53;47.60;;;24.23;;
3249;SDS011;1637;42.020;23.992;2024-02-15T06:20:20;56.73;;;24.47;;
3249;SDS011;1637;42.020;23.992;2024-02-15T06:22:47;54.50;;;26.27;;
3249;SDS011;1637;42.020;23.992;2024-02-15T06:25:15;30.47;;;14.97;;
3249;SDS011;1637;42.020;23.992;2024-02-15T06:27:47;24.67;;;13.90;;
3249;SDS011;1637;42.020;23.992;2024-02-15T06:30:16;34.93;;;15.93;;
3249;SDS011;1637;42.020;23.992;2024-02-15T06:33:00;43.13;;;19.60;;
3249;SDS011;1637;42.020;23.992;2024-02-15T06:35:44;62.30;;;22.50;;
3249;SDS011;1637;42.020;23.992;2024-02-15T06:38:28;48.30;;;26.20;;
3249;SDS011;1637;42.020;23.992;2024-02-15T06:41:12;39.40;;;19.60;;
3249;SDS011;1637;42.020;23.992;2024-02-15T06:43:41;40.43;;;19.40;;
3249;SDS011;1637;42.020;23.992;2024-02-15T06:46:08;46.80;;;21.00;;
3249;SDS011;1637;42.020;23.992;2024-02-15T06:48:36;56.30;;;24.90;;
3249;SDS011;1637;42.020;23.992;2024-02-15T06:51:03;50.23;;;23.53;;
3249;SDS011;1637;42.020;23.992;2024-02-15T06:53:30;43.00;;;20.40;;
3249;SDS011;1637;42.020;23.992;2024-02-15T06:55:57;75.17;;;31.20;;
3249;SDS011;1637;42.020;23.992;2024-02-15T06:58:24;68.33;;;29.80;;
3249;SDS011;1637;42.020;23.992;2024-02-15T07:00:53;52.23;;;26.30;;
3249;SDS011;1637;42.020;23.992;2024-02-15T07:03:20;75.43;;;24.23;;
3249;SDS011;1637;42.020;23.992;2024-02-15T07:05:48;28.20;;;13.50;;
3249;SDS011;1637;42.020;23.992;2024-02-15T07:08:15;39.13;;;16.30;;
3249;SDS011;1637;42.020;23.992;2024-02-15T07:10:42;55.73;;;17.67;;
3249;SDS011;1637;42.020;23.992;2024-02-15T07:13:09;26.43;;;16.23;;
3249;SDS011;1637;42.020;23.992;2024-02-15T07:15:36;44.57;;;16.90;;
3249;SDS011;1637;42.020;23.992;2024-02-15T07:18:05;28.87;;;14.07;;
3249;SDS011;1637;42.020;23.992;2024-02-15T07:20:32;37.20;;;18.63;;
3249;SDS011;1637;42.020;23.992;2024-02-15T07:22:59;32.47;;;16.40;;
3249;SDS011;1637;42.020;23.992;2024-02-15T07:25:26;32.20;;;14.30;;
3249;SDS011;1637;42.020;23.992;2024-02-15T07:27:53;25.60;;;14.80;;
3249;SDS011;1637;42.020;23.992;2024-02-15T07:30:19;28.37;;;15.17;;
3249;SDS011;1637;42.020;23.992;2024-02-15T07:32:47;26.33;;;11.03;;
3249;SDS011;1637;42.020;23.992;2024-02-15T07:35:16;12.70;;;6.50;;
3249;SDS011;1637;42.020;23.992;2024-02-15T07:37:50;18.07;;;7.67;;
3249;SDS011;1637;42.020;23.992;2024-02-15T07:40:20;14.90;;;5.20;;
3249;SDS011;1637;42.020;23.992;2024-02-15T07:42:48;13.43;;;11.13;;
3249;SDS011;1637;42.020;23.992;2024-02-15T07:45:17;32.67;;;16.10;;
3249;SDS011;1637;42.020;23.992;2024-02-15T07:47:43;16.30;;;8.53;;
3249;SDS011;1637;42.020;23.992;2024-02-15T07:50:11;16.33;;;6.63;;
3249;SDS011;1637;42.020;23.992;2024-02-15T07:52:45;33.53;;;13.40;;
3249;SDS011;1637;42.020;23.992;2024-02-15T07:55:12;20.43;;;11.67;;
3249;SDS011;1637;42.020;23.992;2024-02-15T07:57:38;346.57;;;164.87;;
3249;SDS011;1637;42.020;23.992;2024-02-15T08:00:06;286.37;;;127.90;;
3249;SDS011;1637;42.020;23.992;2024-02-15T08:02:35;178.10;;;91.83;;
3249;SDS011;1637;42.020;23.992;2024-02-15T08:05:05;20.70;;;13.57;;
3249;SDS011;1637;42.020;23.992;2024-02-15T08:07:36;15.90;;;7.00;;
3249;SDS011;1637;42.020;23.992;2024-02-15T08:10:04;8.13;;;5.20;;
3249;SDS011;1637;42.020;23.992;2024-02-15T08:12:38;15.00;;;11.97;;
3249;SDS011;1637;42.020;23.992;2024-02-15T08:15:05;7.17;;;6.27;;
3249;SDS011;1637;42.020;23.992;2024-02-15T08:17:37;10.30;;;9.30;;
3249;SDS011;1637;42.020;23.992;2024-02-15T08:20:05;26.13;;;9.20;;
3249;SDS011;1637;42.020;23.992;2024-02-15T08:22:33;4.73;;;4.13;;
3249;SDS011;1637;42.020;23.992;2024-02-15T08:25:02;4.80;;;3.40;;
3249;SDS011;1637;42.020;23.992;2024-02-15T08:27:30;12.60;;;7.83;;
3249;SDS011;1637;42.020;23.992;2024-02-15T08:29:57;17.20;;;15.37;;
3249;SDS011;1637;42.020;23.992;2024-02-15T08:32:24;13.60;;;11.60;;
3249;SDS011;1637;42.020;23.992;2024-02-15T08:34:51;10.03;;;7.33;;
3249;SDS011;1637;42.020;23.992;2024-02-15T08:37:17;22.57;;;15.37;;
3249;SDS011;1637;42.020;23.992;2024-02-15T08:39:45;15.43;;;6.33;;
3249;SDS011;1637;42.020;23.992;2024-02-15T08:42:13;8.73;;;6.33;;
3249;SDS011;1637;42.020;23.992;2024-02-15T08:44:39;7.27;;;4.40;;
3249;SDS011;1637;42.020;23.992;2024-02-15T08:47:06;6.57;;;4.40;;
3249;SDS011;1637;42.020;23.992;2024-02-15T08:49:33;13.07;;;8.20;;
3249;SDS011;1637;42.020;23.992;2024-02-15T08:52:00;11.77;;;7.77;;
3249;SDS011;1637;42.020;23.992;2024-02-15T08:54:27;4.77;;;2.47;;
3249;SDS011;1637;42.020;23.992;2024-02-15T08:56:54;10.27;;;7.10;;
3249;SDS011;1637;42.020;23.992;2024-02-15T08:59:22;5.23;;;3.10;;
3249;SDS011;1637;42.020;23.992;2024-02-15T09:01:50;4.50;;;3.70;;
3249;SDS011;1637;42.020;23.992;2024-02-15T09:04:16;3.00;;;2.00;;
3249;SDS011;1637;42.020;23.992;2024-02-15T09:06:43;3.47;;;2.50;;
3249;SDS011;1637;42.020;23.992;2024-02-15T09:09:10;11.30;;;8.10;;
3249;SDS011;1637;42.020;23.992;2024-02-15T09:11:37;12.83;;;6.97;;
3249;SDS011;1637;42.020;23.992;2024-02-15T09:14:04;15.93;;;4.27;;
3249;SDS011;1637;42.020;23.992;2024-02-15T09:16:32;17.03;;;5.30;;
3249;SDS011;1637;42.020;23.992;2024-02-15T09:18:59;14.07;;;9.47;;
3249;SDS011;1637;42.020;23.992;2024-02-15T09:21:27;5.23;;;3.00;;
3249;SDS011;1637;42.020;23.992;2024-02-15T09:23:54;22.63;;;13.60;;
3249;SDS011;1637;42.020;23.992;2024-02-15T09:26:21;9.07;;;5.13;;
3249;SDS011;1637;42.020;23.992;2024-02-15T09:28:48;30.23;;;15.80;;
3249;SDS011;1637;42.020;23.992;2024-02-15T09:31:15;34.13;;;7.40;;
3249;SDS011;1637;42.020;23.992;2024-02-15T09:33:43;28.77;;;16.20;;
3249;SDS011;1637;42.020;23.992;2024-02-15T09:36:10;45.33;;;13.40;;
3249;SDS011;1637;42.020;23.992;2024-02-15T09:38:39;10.30;;;2.70;;
3249;SDS011;1637;42.020;23.992;2024-02-15T09:41:05;7.33;;;3.40;;
3249;SDS011;1637;42.020;23.992;2024-02-15T09:43:34;11.97;;;7.37;;
3249;SDS011;1637;42.020;23.992;2024-02-15T09:46:01;3.00;;;2.67;;
3249;SDS011;1637;42.020;23.992;2024-02-15T09:48:29;8.47;;;4.87;;
3249;SDS011;1637;42.020;23.992;2024-02-15T09:50:59;39.13;;;20.07;;
3249;SDS011;1637;42.020;23.992;2024-02-15T09:53:27;6.63;;;4.57;;
3249;SDS011;1637;42.020;23.992;2024-02-15T09:55:54;17.40;;;8.23;;
3249;SDS011;1637;42.020;23.992;2024-02-15T09:58:29;9.40;;;7.10;;
3249;SDS011;1637;42.020;23.992;2024-02-15T10:00:59;5.87;;;4.20;;
3249;SDS011;1637;42.020;23.992;2024-02-15T10:03:31;4.90;;;3.00;;
3249;SDS011;1637;42.020;23.992;2024-02-15T10:06:01;6.43;;;3.97;;
3249;SDS011;1637;42.020;23.992;2024-02-15T10:08:28;9.13;;;3.37;;
3249;SDS011;1637;42.020;23.992;2024-02-15T10:11:08;15.97;;;3.80;;
3249;SDS011;1637;42.020;23.992;2024-02-15T10:13:35;27.40;;;9.30;;
3249;SDS011;1637;42.020;23.992;2024-02-15T10:18:50;4.30;;;3.47;;
3249;SDS011;1637;42.020;23.992;2024-02-15T10:21:25;10.57;;;4.57;;
3249;SDS011;1637;42.020;23.992;2024-02-15T10:24:03;7.57;;;3.53;;
3249;SDS011;1637;42.020;23.992;2024-02-15T10:26:31;14.10;;;8.30;;
3249;SDS011;1637;42.020;23.992;2024-02-15T10:29:06;7.97;;;3.03;;
3249;SDS011;1637;42.020;23.992;2024-02-15T10:31:36;6.77;;;3.10;;
3249;SDS011;1637;42.020;23.992;2024-02-15T10:34:03;5.80;;;3.83;;
3249;SDS011;1637;42.020;23.992;2024-02-15T10:36:32;11.73;;;5.70;;
3249;SDS011;1637;42.020;23.992;2024-02-15T10:41:49;24.00;;;5.80;;
3249;SDS011;1637;42.020;23.992;2024-02-15T10:44:18;25.63;;;7.63;;
3249;SDS011;1637;42.020;23.992;2024-02-15T10:46:46;18.27;;;9.60;;
3249;SDS011;1637;42.020;23.992;2024-02-15T10:49:16;10.83;;;4.90;;
3249;SDS011;1637;42.020;23.992;2024-02-15T10:51:44;5.43;;;4.40;;
3249;SDS011;1637;42.020;23.992;2024-02-15T10:54:23;6.10;;;3.03;;
3249;SDS011;1637;42.020;23.992;2024-02-15T10:57:04;8.37;;;3.70;;
3249;SDS011;1637;42.020;23.992;2024-02-15T10:59:34;7.23;;;3.83;;
3249;SDS011;1637;42.020;23.992;2024-02-15T11:02:06;6.10;;;3.43;;
3249;SDS011;1637;42.020;23.992;2024-02-15T11:04:48;9.43;;;4.00;;
3249;SDS011;1637;42.020;23.992;2024-02-15T11:07:22;21.37;;;7.40;;
3249;SDS011;1637;42.020;23.992;2024-02-15T11:09:51;50.00;;;19.90;;
3249;SDS011;1637;42.020;23.992;2024-02-15T11:12:18;14.47;;;6.00;;
3249;SDS011;1637;42.020;23.992;2024-02-15T11:14:45;25.70;;;11.80;;
3249;SDS011;1637;42.020;23.992;2024-02-15T11:17:12;17.47;;;7.10;;
3249;SDS011;1637;42.020;23.992;2024-02-15T11:23:25;25.13;;;7.80;;
3249;SDS011;1637;42.020;23.992;2024-02-15T11:25:52;22.53;;;6.33;;
3249;SDS011;1637;42.020;23.992;2024-02-15T11:28:36;5.10;;;2.53;;
3249;SDS011;1637;42.020;23.992;2024-02-15T11:31:08;10.60;;;5.00;;
3249;SDS011;1637;42.020;23.992;2024-02-15T11:33:37;14.50;;;6.73;;
3249;SDS011;1637;42.020;23.992;2024-02-15T11:36:05;7.33;;;3.10;;
3249;SDS011;1637;42.020;23.992;2024-02-15T11:38:34;3.00;;;2.30;;
3249;SDS011;1637;42.020;23.992;2024-02-15T11:41:01;18.63;;;11.77;;
3249;SDS011;1637;42.020;23.992;2024-02-15T11:43:50;14.37;;;6.37;;
3249;SDS011;1637;42.020;23.992;2024-02-15T11:46:22;5.30;;;2.00;;
3249;SDS011;1637;42.020;23.992;2024-02-15T11:48:51;5.60;;;1.40;;
3249;SDS011;1637;42.020;23.992;2024-02-15T11:51:25;33.40;;;10.87;;
3249;SDS011;1637;42.020;23.992;2024-02-15T11:54:01;7.43;;;2.83;;
3249;SDS011;1637;42.020;23.992;2024-02-15T11:56:31;22.53;;;3.97;;
3249;SDS011;1637;42.020;23.992;2024-02-15T11:59:03;5.63;;;3.50;;
3249;SDS011;1637;42.020;23.992;2024-02-15T12:01:31;2.63;;;1.60;;
3249;SDS011;1637;42.020;23.992;2024-02-15T12:04:16;2.20;;;1.60;;
3249;SDS011;1637;42.020;23.992;2024-02-15T12:07:01;9.90;;;2.97;;
3249;SDS011;1637;42.020;23.992;2024-02-15T12:09:47;3.57;;;3.30;;
3249;SDS011;1637;42.020;23.992;2024-02-15T12:12:31;10.97;;;4.57;;
3249;SDS011;1637;42.020;23.992;2024-02-15T12:15:16;4.30;;;3.60;;
3249;SDS011;1637;42.020;23.992;2024-02-15T12:18:13;8.77;;;2.60;;
3249;SDS011;1637;42.020;23.992;2024-02-15T12:20:57;5.83;;;5.23;;
3249;SDS011;1637;42.020;23.992;2024-02-15T12:23:24;7.13;;;2.50;;
3249;SDS011;1637;42.020;23.992;2024-02-15T12:25:52;5.63;;;3.00;;
3249;SDS011;1637;42.020;23.992;2024-02-15T12:28:19;16.00;;;5.10;;
3249;SDS011;1637;42.020;23.992;2024-02-15T12:30:47;21.63;;;7.97;;
3249;SDS011;1637;42.020;23.992;2024-02-15T12:33:21;11.00;;;4.20;;
3249;SDS011;1637;42.020;23.992;2024-02-15T12:35:48;4.90;;;3.30;;
3249;SDS011;1637;42.020;23.992;2024-02-15T12:38:16;7.10;;;2.40;;
3249;SDS011;1637;42.020;23.992;2024-02-15T12:40:43;14.73;;;7.63;;
3249;SDS011;1637;42.020;23.992;2024-02-15T12:43:12;16.83;;;8.80;;
3249;SDS011;1637;42.020;23.992;2024-02-15T12:45:39;7.27;;;4.40;;
3249;SDS011;1637;42.020;23.992;2024-02-15T12:48:07;11.10;;;2.67;;
3249;SDS011;1637;42.020;23.992;2024-02-15T12:50:35;30.40;;;12.60;;
3249;SDS011;1637;42.020;23.992;2024-02-15T12:53:03;18.40;;;6.77;;
3249;SDS011;1637;42.020;23.992;2024-02-15T12:55:31;32.70;;;14.87;;
3249;SDS011;1637;42.020;23.992;2024-02-15T12:58:00;7.13;;;3.73;;
3249;SDS011;1637;42.020;23.992;2024-02-15T13:00:35;13.63;;;7.43;;
3249;SDS011;1637;42.020;23.992;2024-02-15T13:03:04;5.00;;;2.63;;
3249;SDS011;1637;42.020;23.992;2024-02-15T13:05:34;11.63;;;5.30;;
3249;SDS011;1637;42.020;23.992;2024-02-15T13:08:01;8.60;;;4.00;;
3249;SDS011;1637;42.020;23.992;2024-02-15T13:10:31;1.93;;;1.77;;
3249;SDS011;1637;42.020;23.992;2024-02-15T13:12:58;5.93;;;3.53;;
3249;SDS011;1637;42.020;23.992;2024-02-15T13:15:25;11.50;;;4.70;;
3249;SDS011;1637;42.020;23.992;2024-02-15T13:17:59;21.50;;;8.50;;
3249;SDS011;1637;42.020;23.992;2024-02-15T13:20:30;11.80;;;5.50;;
3249;SDS011;1637;42.020;23.992;2024-02-15T13:22:59;14.83;;;10.67;;
3249;SDS011;1637;42.020;23.992;2024-02-15T13:25:28;22.73;;;10.47;;
3249;SDS011;1637;42.020;23.992;2024-02-15T13:27:55;12.53;;;6.20;;
3249;SDS011;1637;42.020;23.992;2024-02-15T13:30:21;21.13;;;9.17;;
3249;SDS011;1637;42.020;23.992;2024-02-15T13:32:52;8.13;;;4.97;;
3249;SDS011;1637;42.020;23.992;2024-02-15T13:35:21;6.63;;;3.90;;
3249;SDS011;1637;42.020;23.992;2024-02-15T13:37:49;7.77;;;5.00;;
3249;SDS011;1637;42.020;23.992;2024-02-15T13:40:19;4.93;;;2.23;;
3249;SDS011;1637;42.020;23.992;2024-02-15T13:42:48;4.50;;;2.70;;
3249;SDS011;1637;42.020;23.992;2024-02-15T13:45:19;6.10;;;3.57;;
3249;SDS011;1637;42.020;23.992;2024-02-15T13:47:47;5.37;;;3.60;;
3249;SDS011;1637;42.020;23.992;2024-02-15T13:50:15;9.30;;;4.10;;
3249;SDS011;1637;42.020;23.992;2024-02-15T13:52:44;12.30;;;5.83;;
3249;SDS011;1637;42.020;23.992;2024-02-15T13:55:11;7.60;;;3.63;;
3249;SDS011;1637;42.020;23.992;2024-02-15T13:57:39;10.97;;;6.60;;
3249;SDS011;1637;42.020;23.992;2024-02-15T14:00:07;30.33;;;10.80;;
3249;SDS011;1637;42.020;23.992;2024-02-15T14:02:39;20.10;;;11.00;;
3249;SDS011;1637;42.020;23.992;2024-02-15T14:05:06;5.70;;;4.20;;
3249;SDS011;1637;42.020;23.992;2024-02-15T14:07:34;17.83;;;8.37;;
3249;SDS011;1637;42.020;23.992;2024-02-15T14:10:03;7.47;;;3.83;;
3249;SDS011;1637;42.020;23.992;2024-02-15T14:12:30;9.93;;;6.10;;
3249;SDS011;1637;42.020;23.992;2024-02-15T14:14:57;13.53;;;4.00;;
3249;SDS011;1637;42.020;23.992;2024-02-15T14:17:24;24.00;;;13.00;;
3249;SDS011;1637;42.020;23.992;2024-02-15T14:19:53;15.10;;;9.60;;
3249;SDS011;1637;42.020;23.992;2024-02-15T14:22:20;15.53;;;8.00;;
3249;SDS011;1637;42.020;23.992;2024-02-15T14:24:48;22.30;;;8.37;;
3249;SDS011;1637;42.020;23.992;2024-02-15T14:27:17;26.97;;;10.03;;
3249;SDS011;1637;42.020;23.992;2024-02-15T14:29:43;34.20;;;10.33;;
3249;SDS011;1637;42.020;23.992;2024-02-15T14:32:30;70.03;;;21.37;;
3249;SDS011;1637;42.020;23.992;2024-02-15T14:35:14;43.20;;;17.73;;
3249;SDS011;1637;42.020;23.992;2024-02-15T14:37:42;51.03;;;16.33;;
3249;SDS011;1637;42.020;23.992;2024-02-15T14:40:10;31.07;;;10.90;;
3249;SDS011;1637;42.020;23.992;2024-02-15T14:42:40;39.57;;;12.67;;
3249;SDS011;1637;42.020;23.992;2024-02-15T14:45:08;119.33;;;37.13;;
3249;SDS011;1637;42.020;23.992;2024-02-15T14:47:35;19.87;;;9.00;;
3249;SDS011;1637;42.020;23.992;2024-02-15T14:50:03;18.87;;;4.00;;
3249;SDS011;1637;42.020;23.992;2024-02-15T14:52:33;19.60;;;7.63;;
3249;SDS011;1637;42.020;23.992;2024-02-15T14:55:00;17.80;;;8.00;;
3249;SDS011;1637;42.020;23.992;2024-02-15T14:57:30;28.07;;;12.37;;
3249;SDS011;1637;42.020;23.992;2024-02-15T14:59:58;21.17;;;8.27;;
3249;SDS011;1637;42.020;23.992;2024-02-15T15:02:25;29.83;;;12.03;;
3249;SDS011;1637;42.020;23.992;2024-02-15T15:04:53;19.67;;;7.30;;